sensor_id;sensor_type;location;lat;lon;timestamp;pressure;altitude;pressure_sealevel;temperature;humidity
73692;BME280;61996;49.910;35.562;2024-03-02T00:00:59;100068.13;;;19.14;41.42
73692;BME280;61996;49.910;35.562;2024-03-02T00:04:03;100077.34;;;19.10;41.32
73692;BME280;61996;49.910;35.562;2024-03-02T00:07:07;100086.84;;;19.03;41.35
73692;BME280;61996;49.910;35.562;2024-03-02T00:10:11;100080.94;;;19.00;41.23
73692;BME280;61996;49.910;35.562;2024-03-02T00:13:16;100081.81;;;18.89;41.18
73692;BME280;61996;49.910;35.562;2024-03-02T00:16:24;100085.09;;;18.93;41.24
73692;BME280;61996;49.910;35.562;2024-03-02T00:19:31;100074.22;;;19.05;41.19
73692;BME280;61996;49.910;35.562;2024-03-02T00:22:36;100072.16;;;18.88;41.04
73692;BME280;61996;49.910;35.562;2024-03-02T00:25:40;100072.66;;;18.82;41.63
73692;BME280;61996;49.910;35.562;2024-03-02T00:28:43;100071.25;;;18.78;41.45
73692;BME280;61996;49.910;35.562;2024-03-02T00:31:46;100066.16;;;18.75;41.35
73692;BME280;61996;49.910;35.562;2024-03-02T00:34:50;100063.38;;;18.65;41.45
73692;BME280;61996;49.910;35.562;2024-03-02T00:37:55;100065.31;;;18.63;41.71
73692;BME280;61996;49.910;35.562;2024-03-02T00:40:59;100061.94;;;18.61;41.68
73692;BME280;61996;49.910;35.562;2024-03-02T00:44:03;100065.69;;;18.58;41.52
73692;BME280;61996;49.910;35.562;2024-03-02T00:47:07;100056.06;;;18.46;41.63
73692;BME280;61996;49.910;35.562;2024-03-02T00:50:10;100054.22;;;18.47;41.61
73692;BME280;61996;49.910;35.562;2024-03-02T00:53:25;100055.56;;;18.52;41.80
73692;BME280;61996;49.910;35.562;2024-03-02T00:56:28;100053.53;;;18.45;41.71
73692;BME280;61996;49.910;35.562;2024-03-02T00:59:32;100057.53;;;18.39;41.75
73692;BME280;61996;49.910;35.562;2024-03-02T01:02:35;100057.53;;;18.39;41.67
73692;BME280;61996;49.910;35.562;2024-03-02T01:05:41;100059.94;;;18.42;41.71
73692;BME280;61996;49.910;35.562;2024-03-02T01:08:46;100046.59;;;18.42;41.79
73692;BME280;61996;49.910;35.562;2024-03-02T01:11:53;100047.38;;;18.33;41.74
73692;BME280;61996;49.910;35.562;2024-03-02T01:14:56;100048.47;;;18.30;41.81
73692;BME280;61996;49.910;35.562;2024-03-02T01:17:59;100052.63;;;18.23;42.01
73692;BME280;61996;49.910;35.562;2024-03-02T01:21:02;100040.16;;;18.24;42.01
73692;BME280;61996;49.910;35.562;2024-03-02T01:24:07;100051.78;;;18.23;41.93
73692;BME280;61996;49.910;35.562;2024-03-02T01:27:10;100051.16;;;18.19;42.11
73692;BME280;61996;49.910;35.562;2024-03-02T01:30:13;100063.97;;;18.14;42.13
73692;BME280;61996;49.910;35.562;2024-03-02T01:33:16;100069.69;;;18.10;42.09
73692;BME280;61996;49.910;35.562;2024-03-02T01:36:20;100074.19;;;18.09;42.06
73692;BME280;61996;49.910;35.562;2024-03-02T01:39:24;100063.75;;;18.06;42.24
73692;BME280;61996;49.910;35.562;2024-03-02T01:42:27;100062.06;;;18.05;42.05
73692;BME280;61996;49.910;35.562;2024-03-02T01:45:30;100068.59;;;18.01;42.29
73692;BME280;61996;49.910;35.562;2024-03-02T01:48:34;100068.59;;;18.01;42.20
73692;BME280;61996;49.910;35.562;2024-03-02T01:51:37;100069.00;;;17.96;42.14
73692;BME280;61996;49.910;35.562;2024-03-02T01:54:41;100067.31;;;17.95;42.22
73692;BME280;61996;49.910;35.562;2024-03-02T01:57:44;100064.38;;;17.98;42.05
73692;BME280;61996;49.910;35.562;2024-03-02T02:00:48;100057.38;;;17.97;42.17
73692;BME280;61996;49.910;35.562;2024-03-02T02:03:52;100068.28;;;17.94;42.30
73692;BME280;61996;49.910;35.562;2024-03-02T02:06:55;100063.31;;;17.90;42.26
73692;BME280;61996;49.910;35.562;2024-03-02T02:09:59;100066.31;;;17.85;42.34
73692;BME280;61996;49.910;35.562;2024-03-02T02:13:02;100064.63;;;17.84;42.24
73692;BME280;61996;49.910;35.562;2024-03-02T02:16:06;100058.59;;;17.82;42.16
73692;BME280;61996;49.910;35.562;2024-03-02T02:19:09;100055.09;;;17.82;42.18
73692;BME280;61996;49.910;35.562;2024-03-02T02:22:13;100072.13;;;17.79;42.31
73692;BME280;61996;49.910;35.562;2024-03-02T02:25:16;100066.81;;;17.79;42.20
73692;BME280;61996;49.910;35.562;2024-03-02T02:28:19;100062.59;;;17.76;42.34
73692;BME280;61996;49.910;35.562;2024-03-02T02:31:22;100052.91;;;17.75;42.14
73692;BME280;61996;49.910;35.562;2024-03-02T02:34:25;100058.47;;;17.72;42.25
73692;BME280;61996;49.910;35.562;2024-03-02T02:37:29;100056.78;;;17.71;42.30
73692;BME280;61996;49.910;35.562;2024-03-02T02:40:32;100057.84;;;17.69;42.30
73692;BME280;61996;49.910;35.562;2024-03-02T02:43:35;100061.34;;;17.69;42.13
73692;BME280;61996;49.910;35.562;2024-03-02T02:46:38;100058.06;;;17.66;42.29
73692;BME280;61996;49.910;35.562;2024-03-02T02:49:41;100047.06;;;17.59;42.20
73692;BME280;61996;49.910;35.562;2024-03-02T02:52:46;100062.66;;;17.64;42.21
73692;BME280;61996;49.910;35.562;2024-03-02T02:55:49;100064.75;;;17.60;42.16
73692;BME280;61996;49.910;35.562;2024-03-02T02:58:52;100054.31;;;17.57;42.23
73692;BME280;61996;49.910;35.562;2024-03-02T03:01:55;100058.22;;;17.53;42.17
73692;BME280;61996;49.910;35.562;2024-03-02T03:04:58;100055.56;;;17.53;42.22
73692;BME280;61996;49.910;35.562;2024-03-02T03:08:03;100054.44;;;17.56;42.25
73692;BME280;61996;49.910;35.562;2024-03-02T03:11:06;100059.16;;;17.52;42.14
73692;BME280;61996;49.910;35.562;2024-03-02T03:14:09;100064.59;;;17.50;42.33
73692;BME280;61996;49.910;35.562;2024-03-02T03:17:12;100064.72;;;17.49;42.36
73692;BME280;61996;49.910;35.562;2024-03-02T03:20:15;100069.19;;;17.48;42.16
73692;BME280;61996;49.910;35.562;2024-03-02T03:23:20;100065.81;;;17.46;42.39
73692;BME280;61996;49.910;35.562;2024-03-02T03:26:23;100057.09;;;17.44;42.32
73692;BME280;61996;49.910;35.562;2024-03-02T03:29:26;100057.09;;;17.44;42.17
73692;BME280;61996;49.910;35.562;2024-03-02T03:32:28;100057.09;;;17.44;42.41
73692;BME280;61996;49.910;35.562;2024-03-02T03:35:31;100059.03;;;17.42;42.07
73692;BME280;61996;49.910;35.562;2024-03-02T03:38:36;100056.50;;;17.41;42.36
73692;BME280;61996;49.910;35.562;2024-03-02T03:41:40;100056.50;;;17.41;42.31
73692;BME280;61996;49.910;35.562;2024-03-02T03:44:43;100054.94;;;17.49;41.94
73692;BME280;61996;49.910;35.562;2024-03-02T03:47:45;100057.97;;;17.67;41.51
73692;BME280;61996;49.910;35.562;2024-03-02T03:50:48;100058.81;;;17.79;41.36
73692;BME280;61996;49.910;35.562;2024-03-02T03:53:52;100051.09;;;17.87;41.11
73692;BME280;61996;49.910;35.562;2024-03-02T03:56:56;100047.69;;;17.96;40.86
73692;BME280;61996;49.910;35.562;2024-03-02T03:59:59;100060.25;;;18.05;40.91
73692;BME280;61996;49.910;35.562;2024-03-02T04:03:02;100043.53;;;18.15;40.73
73692;BME280;61996;49.910;35.562;2024-03-02T04:06:05;100043.03;;;18.21;40.58
73692;BME280;61996;49.910;35.562;2024-03-02T04:09:09;100048.00;;;18.25;40.50
73692;BME280;61996;49.910;35.562;2024-03-02T04:12:12;100045.69;;;18.32;40.35
73692;BME280;61996;49.910;35.562;2024-03-02T04:15:15;100046.25;;;18.35;40.47
73692;BME280;61996;49.910;35.562;2024-03-02T04:18:20;100054.88;;;18.39;40.52
73692;BME280;61996;49.910;35.562;2024-03-02T04:21:23;100051.69;;;18.45;40.46
73692;BME280;61996;49.910;35.562;2024-03-02T04:24:27;100051.84;;;18.44;40.51
73692;BME280;61996;49.910;35.562;2024-03-02T04:27:30;100053.66;;;18.43;40.43
73692;BME280;61996;49.910;35.562;2024-03-02T04:30:35;100045.19;;;18.38;40.45
73692;BME280;61996;49.910;35.562;2024-03-02T04:33:38;100046.25;;;18.35;40.44
73692;BME280;61996;49.910;35.562;2024-03-02T04:36:41;100043.22;;;18.40;40.52
73692;BME280;61996;49.910;35.562;2024-03-02T04:39:45;100035.63;;;18.35;40.59
73692;BME280;61996;49.910;35.562;2024-03-02T04:42:48;100032.63;;;18.29;40.76
73692;BME280;61996;49.910;35.562;2024-03-02T04:45:51;100029.22;;;18.27;40.83
73692;BME280;61996;49.910;35.562;2024-03-02T04:48:54;100036.25;;;18.28;40.41
73692;BME280;61996;49.910;35.562;2024-03-02T04:51:58;100033.22;;;18.21;40.88
73692;BME280;61996;49.910;35.562;2024-03-02T04:55:03;100033.22;;;18.21;40.64
73692;BME280;61996;49.910;35.562;2024-03-02T04:58:25;100026.63;;;18.16;40.82
73692;BME280;61996;49.910;35.562;2024-03-02T05:01:28;100014.25;;;18.15;40.99
73692;BME280;61996;49.910;35.562;2024-03-02T05:04:30;100017.88;;;18.14;40.81
73692;BME280;61996;49.910;35.562;2024-03-02T05:07:33;100029.56;;;18.01;40.90
73692;BME280;61996;49.910;35.562;2024-03-02T05:10:37;100023.75;;;17.96;41.08
73692;BME280;61996;49.910;35.562;2024-03-02T05:13:40;100022.56;;;17.89;40.99
73692;BME280;61996;49.910;35.562;2024-03-02T05:16:42;100019.41;;;17.84;41.32
73692;BME280;61996;49.910;35.562;2024-03-02T05:19:45;100021.72;;;17.77;41.25
73692;BME280;61996;49.910;35.562;2024-03-02T05:22:48;100017.22;;;17.78;41.15
73692;BME280;61996;49.910;35.562;2024-03-02T05:25:52;100016.53;;;17.76;41.24
73692;BME280;61996;49.910;35.562;2024-03-02T05:28:55;100021.34;;;17.71;41.35
73692;BME280;61996;49.910;35.562;2024-03-02T05:31:58;100015.41;;;17.67;41.22
73692;BME280;61996;49.910;35.562;2024-03-02T05:35:01;100006.94;;;17.62;41.35
73692;BME280;61996;49.910;35.562;2024-03-02T05:38:06;100016.47;;;17.65;41.28
73692;BME280;61996;49.910;35.562;2024-03-02T05:41:12;100010.31;;;17.64;41.35
73692;BME280;61996;49.910;35.562;2024-03-02T05:44:14;100014.31;;;17.59;41.35
73692;BME280;61996;49.910;35.562;2024-03-02T05:47:17;100001.25;;;17.56;41.34
73692;BME280;61996;49.910;35.562;2024-03-02T05:50:20;100001.53;;;17.52;41.44
73692;BME280;61996;49.910;35.562;2024-03-02T05:53:23;100006.72;;;17.54;41.49
73692;BME280;61996;49.910;35.562;2024-03-02T05:56:27;100005.38;;;17.48;41.46
73692;BME280;61996;49.910;35.562;2024-03-02T05:59:30;100003.44;;;17.50;41.58
73692;BME280;61996;49.910;35.562;2024-03-02T06:02:33;99997.66;;;17.45;41.63
73692;BME280;61996;49.910;35.562;2024-03-02T06:05:41;99991.84;;;17.40;41.70
73692;BME280;61996;49.910;35.562;2024-03-02T06:08:44;100004.03;;;17.43;41.54
73692;BME280;61996;49.910;35.562;2024-03-02T06:11:48;100012.16;;;17.41;41.47
73692;BME280;61996;49.910;35.562;2024-03-02T06:14:51;100016.75;;;17.39;41.52
73692;BME280;61996;49.910;35.562;2024-03-02T06:17:54;100010.69;;;17.37;41.74
73692;BME280;61996;49.910;35.562;2024-03-02T06:20:57;100009.97;;;17.35;41.65
73692;BME280;61996;49.910;35.562;2024-03-02T06:24:00;100018.28;;;17.31;41.84
73692;BME280;61996;49.910;35.562;2024-03-02T06:27:05;100014.69;;;17.32;41.85
73692;BME280;61996;49.910;35.562;2024-03-02T06:30:08;100010.44;;;17.29;41.82
73692;BME280;61996;49.910;35.562;2024-03-02T06:33:11;100015.75;;;17.29;42.03
73692;BME280;61996;49.910;35.562;2024-03-02T06:36:15;100014.31;;;17.25;41.71
73692;BME280;61996;49.910;35.562;2024-03-02T06:39:18;100006.56;;;17.22;41.81
73692;BME280;61996;49.910;35.562;2024-03-02T06:42:23;100013.44;;;17.24;41.74
73692;BME280;61996;49.910;35.562;2024-03-02T06:45:26;100001.13;;;17.23;41.85
73692;BME280;61996;49.910;35.562;2024-03-02T06:48:29;99998.25;;;17.26;41.84
73692;BME280;61996;49.910;35.562;2024-03-02T06:51:33;99988.59;;;17.25;41.93
73692;BME280;61996;49.910;35.562;2024-03-02T06:54:36;99986.16;;;17.22;41.97
73692;BME280;61996;49.910;35.562;2024-03-02T06:57:41;99984.59;;;17.20;41.80
73692;BME280;61996;49.910;35.562;2024-03-02T07:00:43;99991.09;;;17.16;41.93
73692;BME280;61996;49.910;35.562;2024-03-02T07:03:47;99989.28;;;17.16;41.89
73692;BME280;61996;49.910;35.562;2024-03-02T07:06:50;99989.75;;;17.10;42.02
73692;BME280;61996;49.910;35.562;2024-03-02T07:09:53;99990.50;;;17.12;41.92
73692;BME280;61996;49.910;35.562;2024-03-02T07:12:57;99984.56;;;17.09;42.07
73692;BME280;61996;49.910;35.562;2024-03-02T07:16:01;99979.25;;;17.09;42.25
73692;BME280;61996;49.910;35.562;2024-03-02T07:19:29;99978.28;;;17.10;41.96
73692;BME280;61996;49.910;35.562;2024-03-02T07:22:32;99981.91;;;17.09;42.02
73692;BME280;61996;49.910;35.562;2024-03-02T07:25:35;99979.63;;;17.04;42.08
73692;BME280;61996;49.910;35.562;2024-03-02T07:28:43;99976.84;;;17.06;42.03
73692;BME280;61996;49.910;35.562;2024-03-02T07:31:46;99972.38;;;17.06;41.92
73692;BME280;61996;49.910;35.562;2024-03-02T07:34:50;99966.44;;;17.03;41.90
73692;BME280;61996;49.910;35.562;2024-03-02T07:37:53;99963.91;;;17.01;41.99
73692;BME280;61996;49.910;35.562;2024-03-02T07:40:57;99955.81;;;17.03;41.97
73692;BME280;61996;49.910;35.562;2024-03-02T07:44:01;99959.56;;;17.00;42.00
73692;BME280;61996;49.910;35.562;2024-03-02T07:47:04;99950.75;;;16.99;41.98
73692;BME280;61996;49.910;35.562;2024-03-02T07:50:07;99963.06;;;17.01;42.06
73692;BME280;61996;49.910;35.562;2024-03-02T07:53:10;99963.31;;;16.97;42.03
73692;BME280;61996;49.910;35.562;2024-03-02T07:56:13;99952.56;;;16.99;42.01
73692;BME280;61996;49.910;35.562;2024-03-02T07:59:24;99953.75;;;16.95;42.02
73692;BME280;61996;49.910;35.562;2024-03-02T08:02:27;99945.56;;;16.98;41.89
73692;BME280;61996;49.910;35.562;2024-03-02T08:05:30;99937.94;;;16.93;42.02
73692;BME280;61996;49.910;35.562;2024-03-02T08:08:33;99930.94;;;16.92;42.13
73692;BME280;61996;49.910;35.562;2024-03-02T08:11:36;99929.13;;;16.93;42.03
73692;BME280;61996;49.910;35.562;2024-03-02T08:14:40;99928.03;;;16.95;41.97
73692;BME280;61996;49.910;35.562;2024-03-02T08:17:43;99923.69;;;16.94;41.90
73692;BME280;61996;49.910;35.562;2024-03-02T08:20:50;99918.00;;;16.88;41.95
73692;BME280;61996;49.910;35.562;2024-03-02T08:23:53;99917.88;;;16.89;42.01
73692;BME280;61996;49.910;35.562;2024-03-02T08:26:56;99920.53;;;16.89;42.06
73692;BME280;61996;49.910;35.562;2024-03-02T08:30:01;99914.75;;;16.84;42.08
73692;BME280;61996;49.910;35.562;2024-03-02T08:33:08;99912.56;;;16.89;41.93
73692;BME280;61996;49.910;35.562;2024-03-02T08:36:11;99919.81;;;16.87;41.94
73692;BME280;61996;49.910;35.562;2024-03-02T08:39:14;99910.03;;;16.88;42.01
73692;BME280;61996;49.910;35.562;2024-03-02T08:42:17;99907.50;;;16.86;41.88
73692;BME280;61996;49.910;35.562;2024-03-02T08:45:22;99907.50;;;16.86;41.93
73692;BME280;61996;49.910;35.562;2024-03-02T08:48:25;99905.81;;;16.85;41.86
73692;BME280;61996;49.910;35.562;2024-03-02T08:51:27;99890.72;;;16.86;41.87
73692;BME280;61996;49.910;35.562;2024-03-02T08:57:51;99885.41;;;16.86;41.83
73692;BME280;61996;49.910;35.562;2024-03-02T09:00:55;99885.53;;;16.84;41.80
73692;BME280;61996;49.910;35.562;2024-03-02T09:03:58;99890.09;;;16.82;41.89
73692;BME280;61996;49.910;35.562;2024-03-02T09:07:01;99887.44;;;16.82;41.83
73692;BME280;61996;49.910;35.562;2024-03-02T09:10:05;99880.94;;;16.86;41.74
73692;BME280;61996;49.910;35.562;2024-03-02T09:13:08;99879.47;;;16.82;41.90
73692;BME280;61996;49.910;35.562;2024-03-02T09:16:12;99869.81;;;16.81;41.82
73692;BME280;61996;49.910;35.562;2024-03-02T09:19:15;99866.94;;;16.84;41.82
73692;BME280;61996;49.910;35.562;2024-03-02T09:22:19;99861.25;;;16.78;41.95
73692;BME280;61996;49.910;35.562;2024-03-02T09:25:21;99863.53;;;16.82;41.79
73692;BME280;61996;49.910;35.562;2024-03-02T09:28:24;99853.16;;;16.79;41.93
73692;BME280;61996;49.910;35.562;2024-03-02T09:31:29;99858.22;;;16.82;41.78
73692;BME280;61996;49.910;35.562;2024-03-02T09:34:32;99846.75;;;16.82;41.87
73692;BME280;61996;49.910;35.562;2024-03-02T09:37:35;99844.22;;;16.80;41.84
73692;BME280;61996;49.910;35.562;2024-03-02T09:40:38;99844.22;;;16.80;41.93
73692;BME280;61996;49.910;35.562;2024-03-02T09:43:41;99841.22;;;16.85;41.73
73692;BME280;61996;49.910;35.562;2024-03-02T09:46:45;99829.97;;;16.92;41.61
73692;BME280;61996;49.910;35.562;2024-03-02T09:49:51;99827.44;;;17.02;41.53
73692;BME280;61996;49.910;35.562;2024-03-02T09:52:54;99824.63;;;17.15;41.42
73692;BME280;61996;49.910;35.562;2024-03-02T09:55:57;99815.56;;;17.29;41.08
73692;BME280;61996;49.910;35.562;2024-03-02T09:59:00;99814.69;;;17.39;40.99
73692;BME280;61996;49.910;35.562;2024-03-02T10:02:04;99803.88;;;17.52;40.73
73692;BME280;61996;49.910;35.562;2024-03-02T10:05:09;99811.69;;;17.65;40.61
73692;BME280;61996;49.910;35.562;2024-03-02T10:08:12;99801.28;;;17.73;40.48
73692;BME280;61996;49.910;35.562;2024-03-02T10:11:25;99806.19;;;17.89;40.81
73692;BME280;61996;49.910;35.562;2024-03-02T10:14:28;99799.53;;;17.94;40.02
73692;BME280;61996;49.910;35.562;2024-03-02T10:17:33;99799.53;;;17.94;40.20
73692;BME280;61996;49.910;35.562;2024-03-02T10:20:36;99801.63;;;18.00;40.18
73692;BME280;61996;49.910;35.562;2024-03-02T10:23:39;99794.25;;;18.04;40.16
73692;BME280;61996;49.910;35.562;2024-03-02T10:26:42;99789.25;;;18.11;40.21
73692;BME280;61996;49.910;35.562;2024-03-02T10:29:45;99788.16;;;18.13;40.14
73692;BME280;61996;49.910;35.562;2024-03-02T10:32:50;99793.09;;;18.18;40.06
73692;BME280;61996;49.910;35.562;2024-03-02T10:35:54;99790.63;;;18.26;39.92
73692;BME280;61996;49.910;35.562;2024-03-02T10:38:57;99788.78;;;18.26;39.85
73692;BME280;61996;49.910;35.562;2024-03-02T10:42:01;99788.28;;;18.32;39.78
73692;BME280;61996;49.910;35.562;2024-03-02T10:45:05;99784.50;;;18.35;39.78
73692;BME280;61996;49.910;35.562;2024-03-02T10:48:09;99785.09;;;18.39;39.80
73692;BME280;61996;49.910;35.562;2024-03-02T10:51:12;99777.66;;;18.42;39.68
73692;BME280;61996;49.910;35.562;2024-03-02T10:54:16;99779.94;;;18.47;39.69
73692;BME280;61996;49.910;35.562;2024-03-02T10:57:27;99775.75;;;18.54;39.66
73692;BME280;61996;49.910;35.562;2024-03-02T11:00:35;99773.84;;;18.66;39.64
73692;BME280;61996;49.910;35.562;2024-03-02T11:03:42;99769.97;;;18.70;39.03
73692;BME280;61996;49.910;35.562;2024-03-02T11:06:48;99772.09;;;18.76;39.18
73692;BME280;61996;49.910;35.562;2024-03-02T11:09:52;99784.00;;;18.72;39.23
73692;BME280;61996;49.910;35.562;2024-03-02T11:12:59;99785.09;;;18.69;39.88
73692;BME280;61996;49.910;35.562;2024-03-02T11:16:04;99784.06;;;18.60;40.01
73692;BME280;61996;49.910;35.562;2024-03-02T11:19:11;99776.34;;;18.57;39.95
73692;BME280;61996;49.910;35.562;2024-03-02T11:22:17;99785.28;;;18.56;39.92
73692;BME280;61996;49.910;35.562;2024-03-02T11:25:24;99794.53;;;18.52;40.24
73692;BME280;61996;49.910;35.562;2024-03-02T11:28:34;99793.09;;;18.48;39.94
73692;BME280;61996;49.910;35.562;2024-03-02T11:35:00;99795.34;;;18.43;40.11
73692;BME280;61996;49.910;35.562;2024-03-02T11:38:04;99811.56;;;18.40;40.06
73692;BME280;61996;49.910;35.562;2024-03-02T11:41:09;99815.34;;;18.38;40.12
73692;BME280;61996;49.910;35.562;2024-03-02T11:44:12;99809.00;;;18.29;40.05
73692;BME280;61996;49.910;35.562;2024-03-02T11:47:17;99817.00;;;18.29;40.13
73692;BME280;61996;49.910;35.562;2024-03-02T11:50:29;99825.09;;;18.27;40.26
73692;BME280;61996;49.910;35.562;2024-03-02T11:53:34;99818.91;;;18.48;39.92
